sensor_id;sensor_type;location;lat;lon;timestamp;temperature;humidity
3758;DHT22;1894;51.038;13.692;2024-02-26T00:01:13;2.40;99.90
3758;DHT22;1894;51.038;13.692;2024-02-26T00:03:40;2.50;99.90
3758;DHT22;1894;51.038;13.692;2024-02-26T00:06:09;2.50;99.90
3758;DHT22;1894;51.038;13.692;2024-02-26T00:08:36;2.50;99.90
3758;DHT22;1894;51.038;13.692;2024-02-26T00:11:03;2.50;99.90
3758;DHT22;1894;51.038;13.692;2024-02-26T00:13:31;2.50;99.90
3758;DHT22;1894;51.038;13.692;2024-02-26T00:15:58;2.50;99.90
3758;DHT22;1894;51.038;13.692;2024-02-26T00:18:25;2.40;99.90
3758;DHT22;1894;51.038;13.692;2024-02-26T00:20:53;2.40;99.90
3758;DHT22;1894;51.038;13.692;2024-02-26T00:23:20;2.40;99.90
3758;DHT22;1894;51.038;13.692;2024-02-26T00:25:47;2.40;99.90
3758;DHT22;1894;51.038;13.692;2024-02-26T00:28:14;2.40;99.90
3758;DHT22;1894;51.038;13.692;2024-02-26T00:30:41;2.40;99.90
3758;DHT22;1894;51.038;13.692;2024-02-26T00:33:08;2.50;99.90
3758;DHT22;1894;51.038;13.692;2024-02-26T00:35:37;2.50;99.90
3758;DHT22;1894;51.038;13.692;2024-02-26T00:38:04;2.50;99.90
3758;DHT22;1894;51.038;13.692;2024-02-26T00:40:31;2.50;99.90
3758;DHT22;1894;51.038;13.692;2024-02-26T00:42:58;2.50;99.90
3758;DHT22;1894;51.038;13.692;2024-02-26T00:45:25;2.50;99.90
3758;DHT22;1894;51.038;13.692;2024-02-26T00:47:52;2.40;99.90
3758;DHT22;1894;51.038;13.692;2024-02-26T00:50:19;2.40;99.90
3758;DHT22;1894;51.038;13.692;2024-02-26T00:52:46;2.30;99.90
3758;DHT22;1894;51.038;13.692;2024-02-26T00:55:14;2.30;99.90
3758;DHT22;1894;51.038;13.692;2024-02-26T00:57:41;2.30;99.90
3758;DHT22;1894;51.038;13.692;2024-02-26T01:00:09;2.30;99.90
3758;DHT22;1894;51.038;13.692;2024-02-26T01:02:36;2.30;99.90
3758;DHT22;1894;51.038;13.692;2024-02-26T01:05:06;2.40;99.90
3758;DHT22;1894;51.038;13.692;2024-02-26T01:07:33;2.40;99.90
3758;DHT22;1894;51.038;13.692;2024-02-26T01:10:03;2.40;99.90
3758;DHT22;1894;51.038;13.692;2024-02-26T01:12:33;2.30;99.90
3758;DHT22;1894;51.038;13.692;2024-02-26T01:15:04;2.40;99.90
3758;DHT22;1894;51.038;13.692;2024-02-26T01:17:32;2.30;99.90
3758;DHT22;1894;51.038;13.692;2024-02-26T01:19:59;2.30;99.90
3758;DHT22;1894;51.038;13.692;2024-02-26T01:22:26;2.40;99.90
3758;DHT22;1894;51.038;13.692;2024-02-26T01:24:54;2.30;99.90
3758;DHT22;1894;51.038;13.692;2024-02-26T01:27:21;2.30;99.90
3758;DHT22;1894;51.038;13.692;2024-02-26T01:29:48;2.40;99.90
3758;DHT22;1894;51.038;13.692;2024-02-26T01:32:15;2.40;99.90
3758;DHT22;1894;51.038;13.692;2024-02-26T01:34:42;2.40;99.90
3758;DHT22;1894;51.038;13.692;2024-02-26T01:37:09;2.50;99.90
3758;DHT22;1894;51.038;13.692;2024-02-26T01:39:36;2.40;99.90
3758;DHT22;1894;51.038;13.692;2024-02-26T01:42:03;2.50;99.90
3758;DHT22;1894;51.038;13.692;2024-02-26T01:44:31;2.40;99.90
3758;DHT22;1894;51.038;13.692;2024-02-26T01:46:58;2.40;99.90
3758;DHT22;1894;51.038;13.692;2024-02-26T01:49:25;2.40;99.90
3758;DHT22;1894;51.038;13.692;2024-02-26T01:51:52;2.40;99.90
3758;DHT22;1894;51.038;13.692;2024-02-26T01:54:19;2.40;99.90
3758;DHT22;1894;51.038;13.692;2024-02-26T01:56:47;2.50;99.90
3758;DHT22;1894;51.038;13.692;2024-02-26T01:59:15;2.50;99.90
3758;DHT22;1894;51.038;13.692;2024-02-26T02:01:45;2.50;99.90
3758;DHT22;1894;51.038;13.692;2024-02-26T02:04:21;2.50;99.90
3758;DHT22;1894;51.038;13.692;2024-02-26T02:06:50;2.40;99.90
3758;DHT22;1894;51.038;13.692;2024-02-26T02:09:19;2.40;99.90
3758;DHT22;1894;51.038;13.692;2024-02-26T02:11:47;2.30;99.90
3758;DHT22;1894;51.038;13.692;2024-02-26T02:14:15;2.30;99.90
3758;DHT22;1894;51.038;13.692;2024-02-26T02:16:42;2.30;99.90
3758;DHT22;1894;51.038;13.692;2024-02-26T02:19:09;2.30;99.90
3758;DHT22;1894;51.038;13.692;2024-02-26T02:21:37;2.40;99.90
3758;DHT22;1894;51.038;13.692;2024-02-26T02:24:04;2.30;99.90
3758;DHT22;1894;51.038;13.692;2024-02-26T02:26:31;2.40;99.90
3758;DHT22;1894;51.038;13.692;2024-02-26T02:28:59;2.40;99.90
3758;DHT22;1894;51.038;13.692;2024-02-26T02:31:27;2.40;99.90
3758;DHT22;1894;51.038;13.692;2024-02-26T02:33:54;2.30;99.90
3758;DHT22;1894;51.038;13.692;2024-02-26T02:36:21;2.20;99.90
3758;DHT22;1894;51.038;13.692;2024-02-26T02:38:50;2.20;99.90
3758;DHT22;1894;51.038;13.692;2024-02-26T02:41:18;2.20;99.90
3758;DHT22;1894;51.038;13.692;2024-02-26T02:43:45;2.20;99.90
3758;DHT22;1894;51.038;13.692;2024-02-26T02:46:12;2.20;99.90
3758;DHT22;1894;51.038;13.692;2024-02-26T02:48:42;2.20;99.90
3758;DHT22;1894;51.038;13.692;2024-02-26T02:51:10;2.20;99.90
3758;DHT22;1894;51.038;13.692;2024-02-26T02:53:37;2.20;99.90
3758;DHT22;1894;51.038;13.692;2024-02-26T02:56:04;2.20;99.90
3758;DHT22;1894;51.038;13.692;2024-02-26T02:58:32;2.10;99.90
3758;DHT22;1894;51.038;13.692;2024-02-26T03:00:59;2.20;99.90
3758;DHT22;1894;51.038;13.692;2024-02-26T03:03:27;2.20;99.90
3758;DHT22;1894;51.038;13.692;2024-02-26T03:05:55;2.10;99.90
3758;DHT22;1894;51.038;13.692;2024-02-26T03:08:24;2.10;99.90
3758;DHT22;1894;51.038;13.692;2024-02-26T03:10:52;2.10;99.90
3758;DHT22;1894;51.038;13.692;2024-02-26T03:13:20;2.10;99.90
3758;DHT22;1894;51.038;13.692;2024-02-26T03:15:47;2.10;99.90
3758;DHT22;1894;51.038;13.692;2024-02-26T03:18:14;2.10;99.90
3758;DHT22;1894;51.038;13.692;2024-02-26T03:20:41;2.10;99.90
3758;DHT22;1894;51.038;13.692;2024-02-26T03:23:09;2.00;99.90
3758;DHT22;1894;51.038;13.692;2024-02-26T03:25:39;2.00;99.90
3758;DHT22;1894;51.038;13.692;2024-02-26T03:28:06;2.00;99.90
3758;DHT22;1894;51.038;13.692;2024-02-26T03:30:34;2.00;99.90
3758;DHT22;1894;51.038;13.692;2024-02-26T03:33:01;1.90;99.90
3758;DHT22;1894;51.038;13.692;2024-02-26T03:35:29;1.90;99.90
3758;DHT22;1894;51.038;13.692;2024-02-26T03:37:56;2.00;99.90
3758;DHT22;1894;51.038;13.692;2024-02-26T03:40:24;2.00;99.90
3758;DHT22;1894;51.038;13.692;2024-02-26T03:42:51;2.10;99.90
3758;DHT22;1894;51.038;13.692;2024-02-26T03:45:20;2.10;99.90
3758;DHT22;1894;51.038;13.692;2024-02-26T03:47:48;2.20;99.90
3758;DHT22;1894;51.038;13.692;2024-02-26T03:50:15;2.20;99.90
3758;DHT22;1894;51.038;13.692;2024-02-26T03:52:43;2.20;99.90
3758;DHT22;1894;51.038;13.692;2024-02-26T03:55:10;2.20;99.90
3758;DHT22;1894;51.038;13.692;2024-02-26T03:57:37;2.20;99.90
3758;DHT22;1894;51.038;13.692;2024-02-26T04:00:04;2.20;99.90
3758;DHT22;1894;51.038;13.692;2024-02-26T04:02:36;2.20;99.90
3758;DHT22;1894;51.038;13.692;2024-02-26T04:05:03;2.10;99.90
3758;DHT22;1894;51.038;13.692;2024-02-26T04:07:31;2.10;99.90
3758;DHT22;1894;51.038;13.692;2024-02-26T04:09:58;2.00;99.90
3758;DHT22;1894;51.038;13.692;2024-02-26T04:12:29;2.00;99.90
3758;DHT22;1894;51.038;13.692;2024-02-26T04:14:56;2.00;99.90
3758;DHT22;1894;51.038;13.692;2024-02-26T04:17:24;1.90;99.90
3758;DHT22;1894;51.038;13.692;2024-02-26T04:19:51;1.90;99.90
3758;DHT22;1894;51.038;13.692;2024-02-26T04:22:18;1.90;99.90
3758;DHT22;1894;51.038;13.692;2024-02-26T04:24:45;1.90;99.90
3758;DHT22;1894;51.038;13.692;2024-02-26T04:27:12;1.80;99.90
3758;DHT22;1894;51.038;13.692;2024-02-26T04:29:40;1.80;99.90
3758;DHT22;1894;51.038;13.692;2024-02-26T04:32:07;1.80;99.90
3758;DHT22;1894;51.038;13.692;2024-02-26T04:34:34;1.80;99.90
3758;DHT22;1894;51.038;13.692;2024-02-26T04:37:02;1.80;99.90
3758;DHT22;1894;51.038;13.692;2024-02-26T04:39:29;1.70;99.90
3758;DHT22;1894;51.038;13.692;2024-02-26T04:41:56;1.70;99.90
3758;DHT22;1894;51.038;13.692;2024-02-26T04:44:23;1.70;99.90
3758;DHT22;1894;51.038;13.692;2024-02-26T04:46:50;1.60;99.90
3758;DHT22;1894;51.038;13.692;2024-02-26T04:49:18;1.60;99.90
3758;DHT22;1894;51.038;13.692;2024-02-26T04:51:45;1.60;99.90
3758;DHT22;1894;51.038;13.692;2024-02-26T04:54:12;1.60;99.90
3758;DHT22;1894;51.038;13.692;2024-02-26T04:56:39;1.60;99.90
3758;DHT22;1894;51.038;13.692;2024-02-26T04:59:06;1.60;99.90
3758;DHT22;1894;51.038;13.692;2024-02-26T05:01:33;1.60;99.90
3758;DHT22;1894;51.038;13.692;2024-02-26T05:04:00;1.60;99.90
3758;DHT22;1894;51.038;13.692;2024-02-26T05:06:28;1.60;99.90
3758;DHT22;1894;51.038;13.692;2024-02-26T05:08:55;1.50;99.90
3758;DHT22;1894;51.038;13.692;2024-02-26T05:11:22;1.60;99.90
3758;DHT22;1894;51.038;13.692;2024-02-26T05:13:49;1.50;99.90
3758;DHT22;1894;51.038;13.692;2024-02-26T05:16:16;1.60;99.90
3758;DHT22;1894;51.038;13.692;2024-02-26T05:18:43;1.50;99.90
3758;DHT22;1894;51.038;13.692;2024-02-26T05:21:10;1.50;99.90
3758;DHT22;1894;51.038;13.692;2024-02-26T05:23:37;1.60;99.90
3758;DHT22;1894;51.038;13.692;2024-02-26T05:26:05;1.50;99.90
3758;DHT22;1894;51.038;13.692;2024-02-26T05:28:32;1.60;99.90
3758;DHT22;1894;51.038;13.692;2024-02-26T05:30:59;1.50;99.90
3758;DHT22;1894;51.038;13.692;2024-02-26T05:33:26;1.60;99.90
3758;DHT22;1894;51.038;13.692;2024-02-26T05:35:53;1.60;99.90
3758;DHT22;1894;51.038;13.692;2024-02-26T05:38:23;1.60;99.90
3758;DHT22;1894;51.038;13.692;2024-02-26T05:40:50;1.60;99.90
3758;DHT22;1894;51.038;13.692;2024-02-26T05:43:19;1.60;99.90
3758;DHT22;1894;51.038;13.692;2024-02-26T05:45:49;1.60;99.90
3758;DHT22;1894;51.038;13.692;2024-02-26T05:48:23;1.60;99.90
3758;DHT22;1894;51.038;13.692;2024-02-26T05:50:52;1.70;99.90
3758;DHT22;1894;51.038;13.692;2024-02-26T05:53:21;1.70;99.90
3758;DHT22;1894;51.038;13.692;2024-02-26T05:55:48;1.70;99.90
3758;DHT22;1894;51.038;13.692;2024-02-26T05:58:15;1.80;99.90
3758;DHT22;1894;51.038;13.692;2024-02-26T06:00:42;1.80;99.90
3758;DHT22;1894;51.038;13.692;2024-02-26T06:03:09;2.00;99.90
3758;DHT22;1894;51.038;13.692;2024-02-26T06:05:36;2.00;99.90
3758;DHT22;1894;51.038;13.692;2024-02-26T06:08:03;2.10;99.90
3758;DHT22;1894;51.038;13.692;2024-02-26T06:10:31;2.10;99.90
3758;DHT22;1894;51.038;13.692;2024-02-26T06:12:59;2.20;99.90
3758;DHT22;1894;51.038;13.692;2024-02-26T06:15:26;2.20;99.90
3758;DHT22;1894;51.038;13.692;2024-02-26T06:17:53;2.20;99.90
3758;DHT22;1894;51.038;13.692;2024-02-26T06:20:20;2.30;99.90
3758;DHT22;1894;51.038;13.692;2024-02-26T06:22:47;2.30;99.90
3758;DHT22;1894;51.038;13.692;2024-02-26T06:25:15;2.40;99.90
3758;DHT22;1894;51.038;13.692;2024-02-26T06:27:42;2.40;99.90
3758;DHT22;1894;51.038;13.692;2024-02-26T06:30:09;2.50;99.90
3758;DHT22;1894;51.038;13.692;2024-02-26T06:32:38;2.60;99.90
3758;DHT22;1894;51.038;13.692;2024-02-26T06:35:05;2.70;99.90
3758;DHT22;1894;51.038;13.692;2024-02-26T06:37:38;2.80;99.90
3758;DHT22;1894;51.038;13.692;2024-02-26T06:40:05;2.90;99.90
3758;DHT22;1894;51.038;13.692;2024-02-26T06:42:33;3.00;99.90
3758;DHT22;1894;51.038;13.692;2024-02-26T06:45:01;3.20;99.90
3758;DHT22;1894;51.038;13.692;2024-02-26T06:47:28;3.30;99.90
3758;DHT22;1894;51.038;13.692;2024-02-26T06:49:55;3.40;99.90
3758;DHT22;1894;51.038;13.692;2024-02-26T06:52:25;3.40;99.90
3758;DHT22;1894;51.038;13.692;2024-02-26T06:54:52;3.60;99.90
3758;DHT22;1894;51.038;13.692;2024-02-26T06:57:20;3.70;99.90
3758;DHT22;1894;51.038;13.692;2024-02-26T06:59:47;3.80;99.90
3758;DHT22;1894;51.038;13.692;2024-02-26T07:02:15;3.80;99.90
3758;DHT22;1894;51.038;13.692;2024-02-26T07:04:43;3.80;99.90
3758;DHT22;1894;51.038;13.692;2024-02-26T07:07:10;4.00;99.90
3758;DHT22;1894;51.038;13.692;2024-02-26T07:09:37;4.10;99.90
3758;DHT22;1894;51.038;13.692;2024-02-26T07:12:05;4.30;99.90
3758;DHT22;1894;51.038;13.692;2024-02-26T07:14:32;4.50;99.90
3758;DHT22;1894;51.038;13.692;2024-02-26T07:16:59;4.70;99.90
3758;DHT22;1894;51.038;13.692;2024-02-26T07:19:27;5.00;99.90
3758;DHT22;1894;51.038;13.692;2024-02-26T07:21:54;5.10;99.90
3758;DHT22;1894;51.038;13.692;2024-02-26T07:24:22;5.10;99.90
3758;DHT22;1894;51.038;13.692;2024-02-26T07:26:50;5.10;99.90
3758;DHT22;1894;51.038;13.692;2024-02-26T07:29:17;5.20;99.90
3758;DHT22;1894;51.038;13.692;2024-02-26T07:31:44;5.20;99.90
3758;DHT22;1894;51.038;13.692;2024-02-26T07:34:11;5.20;99.90
3758;DHT22;1894;51.038;13.692;2024-02-26T07:36:39;5.30;99.90
3758;DHT22;1894;51.038;13.692;2024-02-26T07:39:06;5.40;99.90
3758;DHT22;1894;51.038;13.692;2024-02-26T07:41:33;5.50;99.90
3758;DHT22;1894;51.038;13.692;2024-02-26T07:44:01;5.60;99.90
3758;DHT22;1894;51.038;13.692;2024-02-26T07:46:28;5.80;99.90
3758;DHT22;1894;51.038;13.692;2024-02-26T07:48:55;5.80;99.90
3758;DHT22;1894;51.038;13.692;2024-02-26T07:51:22;6.00;99.90
3758;DHT22;1894;51.038;13.692;2024-02-26T07:53:49;6.10;99.90
3758;DHT22;1894;51.038;13.692;2024-02-26T07:56:16;6.10;99.90
3758;DHT22;1894;51.038;13.692;2024-02-26T07:58:45;6.10;99.90
3758;DHT22;1894;51.038;13.692;2024-02-26T08:01:15;6.40;99.90
3758;DHT22;1894;51.038;13.692;2024-02-26T08:03:42;6.50;99.90
3758;DHT22;1894;51.038;13.692;2024-02-26T08:06:09;6.50;99.90
3758;DHT22;1894;51.038;13.692;2024-02-26T08:08:37;6.60;99.90
3758;DHT22;1894;51.038;13.692;2024-02-26T08:11:04;6.60;99.90
3758;DHT22;1894;51.038;13.692;2024-02-26T08:13:31;6.70;99.90
3758;DHT22;1894;51.038;13.692;2024-02-26T08:15:58;6.80;99.90
3758;DHT22;1894;51.038;13.692;2024-02-26T08:18:25;7.00;99.90
3758;DHT22;1894;51.038;13.692;2024-02-26T08:20:53;7.10;99.90
3758;DHT22;1894;51.038;13.692;2024-02-26T08:23:20;7.10;99.90
3758;DHT22;1894;51.038;13.692;2024-02-26T08:25:47;7.10;99.90
3758;DHT22;1894;51.038;13.692;2024-02-26T08:28:14;7.10;99.90
3758;DHT22;1894;51.038;13.692;2024-02-26T08:30:44;7.30;99.90
3758;DHT22;1894;51.038;13.692;2024-02-26T08:33:11;7.30;99.90
3758;DHT22;1894;51.038;13.692;2024-02-26T08:35:40;7.30;99.90
3758;DHT22;1894;51.038;13.692;2024-02-26T08:38:07;7.50;99.90
3758;DHT22;1894;51.038;13.692;2024-02-26T08:40:34;7.70;99.90
3758;DHT22;1894;51.038;13.692;2024-02-26T08:43:01;7.60;99.90
3758;DHT22;1894;51.038;13.692;2024-02-26T08:45:28;7.80;99.90
3758;DHT22;1894;51.038;13.692;2024-02-26T08:47:56;7.80;99.90
3758;DHT22;1894;51.038;13.692;2024-02-26T08:50:25;7.70;99.90
3758;DHT22;1894;51.038;13.692;2024-02-26T08:52:53;8.00;99.90
3758;DHT22;1894;51.038;13.692;2024-02-26T08:55:20;8.00;99.90
3758;DHT22;1894;51.038;13.692;2024-02-26T08:57:48;8.10;99.90
3758;DHT22;1894;51.038;13.692;2024-02-26T09:00:15;8.20;99.90
3758;DHT22;1894;51.038;13.692;2024-02-26T09:02:44;8.40;99.90
3758;DHT22;1894;51.038;13.692;2024-02-26T09:05:11;8.30;99.90
3758;DHT22;1894;51.038;13.692;2024-02-26T09:07:38;8.20;99.90
3758;DHT22;1894;51.038;13.692;2024-02-26T09:10:06;8.20;99.90
3758;DHT22;1894;51.038;13.692;2024-02-26T09:12:37;8.30;99.90
3758;DHT22;1894;51.038;13.692;2024-02-26T09:15:07;8.40;99.90
3758;DHT22;1894;51.038;13.692;2024-02-26T09:17:35;8.50;99.90
3758;DHT22;1894;51.038;13.692;2024-02-26T09:20:02;8.60;99.90
3758;DHT22;1894;51.038;13.692;2024-02-26T09:22:30;8.50;99.90
3758;DHT22;1894;51.038;13.692;2024-02-26T09:24:57;8.70;99.90
3758;DHT22;1894;51.038;13.692;2024-02-26T09:27:24;8.80;99.90
3758;DHT22;1894;51.038;13.692;2024-02-26T09:29:51;9.20;99.90
3758;DHT22;1894;51.038;13.692;2024-02-26T09:32:18;9.40;99.90
3758;DHT22;1894;51.038;13.692;2024-02-26T09:34:46;9.00;99.90
3758;DHT22;1894;51.038;13.692;2024-02-26T09:37:13;9.00;99.90
3758;DHT22;1894;51.038;13.692;2024-02-26T09:39:48;9.20;99.90
3758;DHT22;1894;51.038;13.692;2024-02-26T09:42:18;9.20;99.90
3758;DHT22;1894;51.038;13.692;2024-02-26T09:44:49;9.40;99.90
3758;DHT22;1894;51.038;13.692;2024-02-26T09:47:19;9.50;99.90
3758;DHT22;1894;51.038;13.692;2024-02-26T09:49:49;9.80;99.90
3758;DHT22;1894;51.038;13.692;2024-02-26T09:52:19;10.00;99.90
3758;DHT22;1894;51.038;13.692;2024-02-26T09:54:47;9.90;99.90
3758;DHT22;1894;51.038;13.692;2024-02-26T09:57:16;10.00;99.90
3758;DHT22;1894;51.038;13.692;2024-02-26T09:59:44;10.10;99.90
3758;DHT22;1894;51.038;13.692;2024-02-26T10:02:14;10.20;99.90
3758;DHT22;1894;51.038;13.692;2024-02-26T10:04:43;10.40;99.90
3758;DHT22;1894;51.038;13.692;2024-02-26T10:07:16;10.50;99.90
3758;DHT22;1894;51.038;13.692;2024-02-26T10:09:44;10.60;99.90
3758;DHT22;1894;51.038;13.692;2024-02-26T10:12:12;10.70;99.90
3758;DHT22;1894;51.038;13.692;2024-02-26T10:14:39;10.80;99.90
3758;DHT22;1894;51.038;13.692;2024-02-26T10:17:10;11.00;99.90
3758;DHT22;1894;51.038;13.692;2024-02-26T10:19:38;11.00;99.90
3758;DHT22;1894;51.038;13.692;2024-02-26T10:22:05;10.80;99.90
3758;DHT22;1894;51.038;13.692;2024-02-26T10:24:33;10.80;99.90
3758;DHT22;1894;51.038;13.692;2024-02-26T10:27:02;11.00;99.90
3758;DHT22;1894;51.038;13.692;2024-02-26T10:29:29;11.10;99.90
3758;DHT22;1894;51.038;13.692;2024-02-26T10:31:57;11.00;99.90
3758;DHT22;1894;51.038;13.692;2024-02-26T10:34:24;11.00;99.90
3758;DHT22;1894;51.038;13.692;2024-02-26T10:36:51;10.80;99.90
3758;DHT22;1894;51.038;13.692;2024-02-26T10:39:20;11.00;99.90
3758;DHT22;1894;51.038;13.692;2024-02-26T10:41:49;11.00;99.90
3758;DHT22;1894;51.038;13.692;2024-02-26T10:44:16;11.00;99.90
3758;DHT22;1894;51.038;13.692;2024-02-26T10:46:48;11.00;99.90
3758;DHT22;1894;51.038;13.692;2024-02-26T10:49:17;11.10;99.90
3758;DHT22;1894;51.038;13.692;2024-02-26T10:51:53;11.50;99.90
3758;DHT22;1894;51.038;13.692;2024-02-26T10:54:26;11.50;99.90
3758;DHT22;1894;51.038;13.692;2024-02-26T10:56:59;11.70;99.90
3758;DHT22;1894;51.038;13.692;2024-02-26T10:59:26;11.40;99.90
3758;DHT22;1894;51.038;13.692;2024-02-26T11:01:54;11.60;99.90
3758;DHT22;1894;51.038;13.692;2024-02-26T11:04:23;11.30;99.90
3758;DHT22;1894;51.038;13.692;2024-02-26T11:06:54;11.50;99.90
3758;DHT22;1894;51.038;13.692;2024-02-26T11:09:22;11.60;99.90
3758;DHT22;1894;51.038;13.692;2024-02-26T11:11:51;11.60;99.90
3758;DHT22;1894;51.038;13.692;2024-02-26T11:14:21;11.80;99.90
3758;DHT22;1894;51.038;13.692;2024-02-26T11:16:54;12.00;99.90
3758;DHT22;1894;51.038;13.692;2024-02-26T11:19:24;12.50;99.90
3758;DHT22;1894;51.038;13.692;2024-02-26T11:21:53;12.50;99.90
3758;DHT22;1894;51.038;13.692;2024-02-26T11:24:20;12.90;99.90
3758;DHT22;1894;51.038;13.692;2024-02-26T11:26:54;12.60;99.90
3758;DHT22;1894;51.038;13.692;2024-02-26T11:29:34;12.50;99.90
3758;DHT22;1894;51.038;13.692;2024-02-26T11:32:06;12.70;99.90
3758;DHT22;1894;51.038;13.692;2024-02-26T11:34:33;12.80;99.90
3758;DHT22;1894;51.038;13.692;2024-02-26T11:37:14;13.10;99.90
3758;DHT22;1894;51.038;13.692;2024-02-26T11:39:44;13.80;99.90
3758;DHT22;1894;51.038;13.692;2024-02-26T11:42:16;14.20;99.90
3758;DHT22;1894;51.038;13.692;2024-02-26T11:44:43;14.40;99.90
3758;DHT22;1894;51.038;13.692;2024-02-26T11:47:21;15.20;99.90
3758;DHT22;1894;51.038;13.692;2024-02-26T11:49:49;15.70;99.90
3758;DHT22;1894;51.038;13.692;2024-02-26T11:52:17;16.00;99.90
3758;DHT22;1894;51.038;13.692;2024-02-26T11:54:51;15.60;99.90
3758;DHT22;1894;51.038;13.692;2024-02-26T11:57:39;15.70;99.90
3758;DHT22;1894;51.038;13.692;2024-02-26T12:02:44;17.20;99.90
3758;DHT22;1894;51.038;13.692;2024-02-26T12:07:47;16.90;99.90
3758;DHT22;1894;51.038;13.692;2024-02-26T12:13:05;15.70;99.90
3758;DHT22;1894;51.038;13.692;2024-02-26T12:15:39;15.50;99.90
3758;DHT22;1894;51.038;13.692;2024-02-26T12:18:09;14.90;99.90
3758;DHT22;1894;51.038;13.692;2024-02-26T12:20:39;14.30;99.90
3758;DHT22;1894;51.038;13.692;2024-02-26T12:23:07;14.00;99.90
3758;DHT22;1894;51.038;13.692;2024-02-26T12:25:34;13.90;99.90
3758;DHT22;1894;51.038;13.692;2024-02-26T12:28:01;13.60;99.90
3758;DHT22;1894;51.038;13.692;2024-02-26T12:30:31;13.60;99.90
3758;DHT22;1894;51.038;13.692;2024-02-26T12:33:00;13.70;99.90
3758;DHT22;1894;51.038;13.692;2024-02-26T12:35:28;13.50;99.90
3758;DHT22;1894;51.038;13.692;2024-02-26T12:37:59;13.70;99.90
3758;DHT22;1894;51.038;13.692;2024-02-26T12:40:27;13.80;99.90
3758;DHT22;1894;51.038;13.692;2024-02-26T12:42:55;13.90;99.90
3758;DHT22;1894;51.038;13.692;2024-02-26T12:45:22;13.70;99.90
3758;DHT22;1894;51.038;13.692;2024-02-26T12:47:49;13.60;99.90
3758;DHT22;1894;51.038;13.692;2024-02-26T12:50:17;13.40;99.90
3758;DHT22;1894;51.038;13.692;2024-02-26T12:52:46;13.30;99.90
3758;DHT22;1894;51.038;13.692;2024-02-26T12:55:24;13.30;99.90
3758;DHT22;1894;51.038;13.692;2024-02-26T12:57:52;13.20;99.90
3758;DHT22;1894;51.038;13.692;2024-02-26T13:00:25;13.20;99.90
3758;DHT22;1894;51.038;13.692;2024-02-26T13:02:54;13.00;99.90
3758;DHT22;1894;51.038;13.692;2024-02-26T13:05:23;12.80;99.90
3758;DHT22;1894;51.038;13.692;2024-02-26T13:07:50;12.90;99.90
3758;DHT22;1894;51.038;13.692;2024-02-26T13:10:19;13.00;99.90
3758;DHT22;1894;51.038;13.692;2024-02-26T13:12:48;13.00;99.90
3758;DHT22;1894;51.038;13.692;2024-02-26T13:15:21;13.00;99.90
3758;DHT22;1894;51.038;13.692;2024-02-26T13:17:49;13.10;99.90
3758;DHT22;1894;51.038;13.692;2024-02-26T13:20:30;13.10;99.90
3758;DHT22;1894;51.038;13.692;2024-02-26T13:23:10;13.10;99.90
3758;DHT22;1894;51.038;13.692;2024-02-26T13:25:38;12.80;99.90
3758;DHT22;1894;51.038;13.692;2024-02-26T13:28:15;13.00;99.90
3758;DHT22;1894;51.038;13.692;2024-02-26T13:30:55;12.80;99.90
3758;DHT22;1894;51.038;13.692;2024-02-26T13:33:28;12.90;99.90
3758;DHT22;1894;51.038;13.692;2024-02-26T13:35:57;13.00;99.90
3758;DHT22;1894;51.038;13.692;2024-02-26T13:38:26;12.80;99.90
3758;DHT22;1894;51.038;13.692;2024-02-26T13:40:55;12.50;99.90
3758;DHT22;1894;51.038;13.692;2024-02-26T13:43:23;12.60;99.90
3758;DHT22;1894;51.038;13.692;2024-02-26T13:45:50;12.70;99.90
3758;DHT22;1894;51.038;13.692;2024-02-26T13:48:18;12.70;99.90
3758;DHT22;1894;51.038;13.692;2024-02-26T13:50:45;12.70;99.90
3758;DHT22;1894;51.038;13.692;2024-02-26T13:53:13;12.80;99.90
3758;DHT22;1894;51.038;13.692;2024-02-26T13:55:42;12.90;99.90
3758;DHT22;1894;51.038;13.692;2024-02-26T13:58:12;12.80;99.90
3758;DHT22;1894;51.038;13.692;2024-02-26T14:00:41;12.50;99.90
3758;DHT22;1894;51.038;13.692;2024-02-26T14:03:10;12.20;99.90
3758;DHT22;1894;51.038;13.692;2024-02-26T14:05:37;12.10;99.90
3758;DHT22;1894;51.038;13.692;2024-02-26T14:08:04;12.20;99.90
3758;DHT22;1894;51.038;13.692;2024-02-26T14:10:32;12.40;99.90
3758;DHT22;1894;51.038;13.692;2024-02-26T14:13:00;12.60;99.90
3758;DHT22;1894;51.038;13.692;2024-02-26T14:15:28;12.60;99.90
3758;DHT22;1894;51.038;13.692;2024-02-26T14:17:56;12.60;99.90
3758;DHT22;1894;51.038;13.692;2024-02-26T14:20:24;12.70;99.90
3758;DHT22;1894;51.038;13.692;2024-02-26T14:22:52;12.60;99.90
3758;DHT22;1894;51.038;13.692;2024-02-26T14:25:21;12.70;99.90
3758;DHT22;1894;51.038;13.692;2024-02-26T14:27:49;12.50;99.90
3758;DHT22;1894;51.038;13.692;2024-02-26T14:30:16;12.60;99.90
3758;DHT22;1894;51.038;13.692;2024-02-26T14:32:46;12.40;99.90
3758;DHT22;1894;51.038;13.692;2024-02-26T14:35:13;12.00;99.90
3758;DHT22;1894;51.038;13.692;2024-02-26T14:37:44;12.10;99.90
3758;DHT22;1894;51.038;13.692;2024-02-26T14:40:15;12.20;99.90
3758;DHT22;1894;51.038;13.692;2024-02-26T14:42:42;12.20;99.90
3758;DHT22;1894;51.038;13.692;2024-02-26T14:45:10;12.20;99.90
3758;DHT22;1894;51.038;13.692;2024-02-26T14:47:38;12.20;99.90
3758;DHT22;1894;51.038;13.692;2024-02-26T14:50:07;12.10;99.90
3758;DHT22;1894;51.038;13.692;2024-02-26T14:52:35;11.70;99.90
3758;DHT22;1894;51.038;13.692;2024-02-26T14:55:02;11.70;99.90
3758;DHT22;1894;51.038;13.692;2024-02-26T14:57:29;11.70;99.90
3758;DHT22;1894;51.038;13.692;2024-02-26T14:59:56;11.70;99.90
3758;DHT22;1894;51.038;13.692;2024-02-26T15:02:24;11.70;99.90
3758;DHT22;1894;51.038;13.692;2024-02-26T15:04:51;11.70;99.90
3758;DHT22;1894;51.038;13.692;2024-02-26T15:07:18;11.70;99.90
3758;DHT22;1894;51.038;13.692;2024-02-26T15:09:47;11.80;99.90
3758;DHT22;1894;51.038;13.692;2024-02-26T15:12:14;11.80;99.90
3758;DHT22;1894;51.038;13.692;2024-02-26T15:14:42;11.90;99.90
3758;DHT22;1894;51.038;13.692;2024-02-26T15:17:09;11.90;99.90
3758;DHT22;1894;51.038;13.692;2024-02-26T15:19:39;11.80;99.90
3758;DHT22;1894;51.038;13.692;2024-02-26T15:22:07;11.80;99.90
3758;DHT22;1894;51.038;13.692;2024-02-26T15:24:34;12.00;99.90
3758;DHT22;1894;51.038;13.692;2024-02-26T15:27:01;12.00;99.90
3758;DHT22;1894;51.038;13.692;2024-02-26T15:29:29;11.90;99.90
3758;DHT22;1894;51.038;13.692;2024-02-26T15:31:56;11.80;99.90
3758;DHT22;1894;51.038;13.692;2024-02-26T15:34:23;11.70;99.90
3758;DHT22;1894;51.038;13.692;2024-02-26T15:36:50;11.60;99.90
3758;DHT22;1894;51.038;13.692;2024-02-26T15:39:17;11.50;99.90
3758;DHT22;1894;51.038;13.692;2024-02-26T15:41:44;11.50;99.90
3758;DHT22;1894;51.038;13.692;2024-02-26T15:44:11;11.50;99.90
3758;DHT22;1894;51.038;13.692;2024-02-26T15:46:42;11.30;99.90
3758;DHT22;1894;51.038;13.692;2024-02-26T15:49:09;11.10;99.90
3758;DHT22;1894;51.038;13.692;2024-02-26T15:51:42;11.10;99.90
3758;DHT22;1894;51.038;13.692;2024-02-26T15:54:09;11.00;99.90
3758;DHT22;1894;51.038;13.692;2024-02-26T15:56:36;11.00;99.90
3758;DHT22;1894;51.038;13.692;2024-02-26T15:59:05;11.00;99.90
3758;DHT22;1894;51.038;13.692;2024-02-26T16:01:32;11.00;99.90
3758;DHT22;1894;51.038;13.692;2024-02-26T16:03:59;11.00;99.90
3758;DHT22;1894;51.038;13.692;2024-02-26T16:06:36;10.90;99.90
3758;DHT22;1894;51.038;13.692;2024-02-26T16:09:09;10.90;99.90